sensor_id;sensor_type;location;lat;lon;timestamp;P1;durP1;ratioP1;P2;durP2;ratioP2
71715;SDS011;59568;52.128;5.434;2023-05-10T00:00:25;17.83;;;8.20;;
71715;SDS011;59568;52.128;5.434;2023-05-10T00:02:52;18.07;;;8.33;;
71715;SDS011;59568;52.128;5.434;2023-05-10T00:05:19;18.90;;;8.98;;
71715;SDS011;59568;52.128;5.434;2023-05-10T00:07:46;19.23;;;8.77;;
71715;SDS011;59568;52.128;5.434;2023-05-10T00:10:12;19.77;;;8.88;;
71715;SDS011;59568;52.128;5.434;2023-05-10T00:12:39;15.57;;;7.95;;
71715;SDS011;59568;52.128;5.434;2023-05-10T00:15:06;20.60;;;8.87;;
71715;SDS011;59568;52.128;5.434;2023-05-10T00:17:33;19.38;;;8.48;;
71715;SDS011;59568;52.128;5.434;2023-05-10T00:20:00;18.65;;;9.02;;
71715;SDS011;59568;52.128;5.434;2023-05-10T00:22:27;17.15;;;7.43;;
71715;SDS011;59568;52.128;5.434;2023-05-10T00:24:54;20.73;;;9.23;;
71715;SDS011;59568;52.128;5.434;2023-05-10T00:27:20;20.50;;;9.63;;
71715;SDS011;59568;52.128;5.434;2023-05-10T00:29:47;22.55;;;10.27;;
71715;SDS011;59568;52.128;5.434;2023-05-10T00:32:13;25.25;;;11.10;;
71715;SDS011;59568;52.128;5.434;2023-05-10T00:34:40;28.50;;;11.45;;
71715;SDS011;59568;52.128;5.434;2023-05-10T00:37:07;27.92;;;12.15;;
71715;SDS011;59568;52.128;5.434;2023-05-10T00:39:34;33.40;;;12.40;;
71715;SDS011;59568;52.128;5.434;2023-05-10T00:42:00;31.50;;;12.73;;
71715;SDS011;59568;52.128;5.434;2023-05-10T00:44:27;31.70;;;13.02;;
71715;SDS011;59568;52.128;5.434;2023-05-10T00:46:55;31.67;;;12.77;;
71715;SDS011;59568;52.128;5.434;2023-05-10T00:49:21;35.65;;;13.93;;
71715;SDS011;59568;52.128;5.434;2023-05-10T00:51:48;33.93;;;12.63;;
71715;SDS011;59568;52.128;5.434;2023-05-10T00:54:15;33.88;;;13.65;;
71715;SDS011;59568;52.128;5.434;2023-05-10T00:56:42;32.45;;;12.55;;
71715;SDS011;59568;52.128;5.434;2023-05-10T00:59:17;31.15;;;13.90;;
71715;SDS011;59568;52.128;5.434;2023-05-10T01:01:45;36.83;;;14.43;;
71715;SDS011;59568;52.128;5.434;2023-05-10T01:04:13;34.00;;;14.40;;
71715;SDS011;59568;52.128;5.434;2023-05-10T01:06:41;40.13;;;15.63;;
71715;SDS011;59568;52.128;5.434;2023-05-10T01:09:09;41.53;;;16.88;;
71715;SDS011;59568;52.128;5.434;2023-05-10T01:11:38;43.90;;;16.27;;
71715;SDS011;59568;52.128;5.434;2023-05-10T01:14:06;42.90;;;15.02;;
71715;SDS011;59568;52.128;5.434;2023-05-10T01:16:37;48.63;;;16.63;;
71715;SDS011;59568;52.128;5.434;2023-05-10T01:19:12;41.65;;;15.65;;
71715;SDS011;59568;52.128;5.434;2023-05-10T01:21:49;50.50;;;16.05;;
71715;SDS011;59568;52.128;5.434;2023-05-10T01:29:58;46.03;;;16.37;;
71715;SDS011;59568;52.128;5.434;2023-05-10T01:32:43;43.10;;;14.93;;
71715;SDS011;59568;52.128;5.434;2023-05-10T01:38:07;44.75;;;16.00;;
71715;SDS011;59568;52.128;5.434;2023-05-10T01:40:59;56.85;;;17.65;;
71715;SDS011;59568;52.128;5.434;2023-05-10T01:43:30;47.53;;;15.83;;
71715;SDS011;59568;52.128;5.434;2023-05-10T01:46:16;49.15;;;15.70;;
71715;SDS011;59568;52.128;5.434;2023-05-10T01:48:48;48.22;;;15.82;;
71715;SDS011;59568;52.128;5.434;2023-05-10T01:51:20;46.03;;;14.55;;
71715;SDS011;59568;52.128;5.434;2023-05-10T01:53:49;47.00;;;15.32;;
71715;SDS011;59568;52.128;5.434;2023-05-10T01:56:20;48.37;;;16.57;;
71715;SDS011;59568;52.128;5.434;2023-05-10T01:58:51;54.78;;;16.65;;
71715;SDS011;59568;52.128;5.434;2023-05-10T02:01:20;48.78;;;15.93;;
71715;SDS011;59568;52.128;5.434;2023-05-10T02:03:49;46.42;;;15.40;;
71715;SDS011;59568;52.128;5.434;2023-05-10T02:06:18;53.80;;;16.70;;
71715;SDS011;59568;52.128;5.434;2023-05-10T02:08:47;51.30;;;15.73;;
71715;SDS011;59568;52.128;5.434;2023-05-10T02:11:15;47.10;;;15.02;;
71715;SDS011;59568;52.128;5.434;2023-05-10T02:13:44;56.85;;;16.15;;
71715;SDS011;59568;52.128;5.434;2023-05-10T02:16:13;50.53;;;16.42;;
71715;SDS011;59568;52.128;5.434;2023-05-10T02:18:42;42.95;;;15.02;;
71715;SDS011;59568;52.128;5.434;2023-05-10T02:21:10;52.57;;;16.37;;
71715;SDS011;59568;52.128;5.434;2023-05-10T02:23:37;50.63;;;16.45;;
71715;SDS011;59568;52.128;5.434;2023-05-10T02:26:05;46.58;;;16.50;;
71715;SDS011;59568;52.128;5.434;2023-05-10T02:28:33;46.80;;;15.00;;
71715;SDS011;59568;52.128;5.434;2023-05-10T02:31:01;45.05;;;16.08;;
71715;SDS011;59568;52.128;5.434;2023-05-10T02:33:28;46.77;;;14.93;;
71715;SDS011;59568;52.128;5.434;2023-05-10T02:35:57;49.15;;;16.92;;
71715;SDS011;59568;52.128;5.434;2023-05-10T02:38:25;50.65;;;16.85;;
71715;SDS011;59568;52.128;5.434;2023-05-10T02:40:53;50.53;;;16.23;;
71715;SDS011;59568;52.128;5.434;2023-05-10T02:43:22;52.50;;;17.45;;
71715;SDS011;59568;52.128;5.434;2023-05-10T02:45:49;53.40;;;16.80;;
71715;SDS011;59568;52.128;5.434;2023-05-10T02:48:16;46.45;;;17.30;;
71715;SDS011;59568;52.128;5.434;2023-05-10T02:50:44;51.28;;;18.73;;
71715;SDS011;59568;52.128;5.434;2023-05-10T02:53:15;53.85;;;16.55;;
71715;SDS011;59568;52.128;5.434;2023-05-10T02:55:49;47.72;;;17.13;;
71715;SDS011;59568;52.128;5.434;2023-05-10T02:58:18;54.40;;;16.77;;
71715;SDS011;59568;52.128;5.434;2023-05-10T03:00:47;49.10;;;15.80;;
71715;SDS011;59568;52.128;5.434;2023-05-10T03:03:13;55.10;;;17.67;;
71715;SDS011;59568;52.128;5.434;2023-05-10T03:05:40;58.60;;;18.10;;
71715;SDS011;59568;52.128;5.434;2023-05-10T03:08:07;58.47;;;17.58;;
71715;SDS011;59568;52.128;5.434;2023-05-10T03:10:33;54.73;;;17.90;;
71715;SDS011;59568;52.128;5.434;2023-05-10T03:13:12;71.05;;;18.27;;
71715;SDS011;59568;52.128;5.434;2023-05-10T03:20:59;79.35;;;19.88;;
71715;SDS011;59568;52.128;5.434;2023-05-10T03:23:30;72.67;;;19.40;;
71715;SDS011;59568;52.128;5.434;2023-05-10T03:26:03;69.75;;;18.92;;
71715;SDS011;59568;52.128;5.434;2023-05-10T03:28:31;63.80;;;17.92;;
71715;SDS011;59568;52.128;5.434;2023-05-10T03:31:00;67.80;;;18.90;;
71715;SDS011;59568;52.128;5.434;2023-05-10T03:33:27;81.28;;;17.42;;
71715;SDS011;59568;52.128;5.434;2023-05-10T03:35:54;72.53;;;18.03;;
71715;SDS011;59568;52.128;5.434;2023-05-10T03:38:21;73.47;;;18.92;;
71715;SDS011;59568;52.128;5.434;2023-05-10T03:40:47;76.88;;;18.38;;
71715;SDS011;59568;52.128;5.434;2023-05-10T03:43:14;80.40;;;17.67;;
71715;SDS011;59568;52.128;5.434;2023-05-10T03:45:41;79.13;;;20.05;;
71715;SDS011;59568;52.128;5.434;2023-05-10T03:48:07;71.07;;;17.70;;
71715;SDS011;59568;52.128;5.434;2023-05-10T03:50:35;75.40;;;18.02;;
71715;SDS011;59568;52.128;5.434;2023-05-10T03:53:02;77.03;;;18.42;;
71715;SDS011;59568;52.128;5.434;2023-05-10T03:55:28;61.72;;;18.17;;
71715;SDS011;59568;52.128;5.434;2023-05-10T03:57:55;78.20;;;18.65;;
71715;SDS011;59568;52.128;5.434;2023-05-10T04:00:22;68.30;;;17.80;;
71715;SDS011;59568;52.128;5.434;2023-05-10T04:02:50;76.35;;;17.33;;
71715;SDS011;59568;52.128;5.434;2023-05-10T04:05:17;66.97;;;18.13;;
71715;SDS011;59568;52.128;5.434;2023-05-10T04:07:44;78.45;;;19.00;;
71715;SDS011;59568;52.128;5.434;2023-05-10T04:10:11;67.38;;;19.48;;
71715;SDS011;59568;52.128;5.434;2023-05-10T04:12:52;63.50;;;17.50;;
71715;SDS011;59568;52.128;5.434;2023-05-10T04:15:18;61.33;;;17.40;;
71715;SDS011;59568;52.128;5.434;2023-05-10T04:17:45;62.40;;;17.27;;
71715;SDS011;59568;52.128;5.434;2023-05-10T04:20:26;78.70;;;17.90;;
71715;SDS011;59568;52.128;5.434;2023-05-10T04:23:08;61.30;;;17.08;;
71715;SDS011;59568;52.128;5.434;2023-05-10T04:25:35;62.23;;;16.47;;
71715;SDS011;59568;52.128;5.434;2023-05-10T04:28:01;61.78;;;16.67;;
71715;SDS011;59568;52.128;5.434;2023-05-10T04:30:29;59.03;;;16.98;;
71715;SDS011;59568;52.128;5.434;2023-05-10T04:32:56;59.00;;;15.75;;
71715;SDS011;59568;52.128;5.434;2023-05-10T04:35:22;61.08;;;17.38;;
71715;SDS011;59568;52.128;5.434;2023-05-10T04:37:49;55.53;;;15.63;;
71715;SDS011;59568;52.128;5.434;2023-05-10T04:40:16;61.88;;;16.73;;
71715;SDS011;59568;52.128;5.434;2023-05-10T04:42:43;67.00;;;17.92;;
71715;SDS011;59568;52.128;5.434;2023-05-10T04:45:10;62.30;;;17.73;;
71715;SDS011;59568;52.128;5.434;2023-05-10T04:47:36;68.78;;;17.10;;
71715;SDS011;59568;52.128;5.434;2023-05-10T04:50:03;58.43;;;17.83;;
71715;SDS011;59568;52.128;5.434;2023-05-10T04:52:30;59.63;;;16.42;;
71715;SDS011;59568;52.128;5.434;2023-05-10T04:54:57;62.83;;;17.30;;
71715;SDS011;59568;52.128;5.434;2023-05-10T04:57:24;69.45;;;17.67;;
71715;SDS011;59568;52.128;5.434;2023-05-10T04:59:50;64.20;;;17.23;;
71715;SDS011;59568;52.128;5.434;2023-05-10T05:02:17;65.63;;;16.97;;
71715;SDS011;59568;52.128;5.434;2023-05-10T05:04:43;65.30;;;17.75;;
71715;SDS011;59568;52.128;5.434;2023-05-10T05:07:10;71.88;;;19.30;;
71715;SDS011;59568;52.128;5.434;2023-05-10T05:09:37;66.57;;;17.83;;
71715;SDS011;59568;52.128;5.434;2023-05-10T05:12:03;68.47;;;18.10;;
71715;SDS011;59568;52.128;5.434;2023-05-10T05:14:30;74.77;;;18.43;;
71715;SDS011;59568;52.128;5.434;2023-05-10T05:16:57;64.25;;;18.75;;
71715;SDS011;59568;52.128;5.434;2023-05-10T05:19:23;74.65;;;18.70;;
71715;SDS011;59568;52.128;5.434;2023-05-10T05:21:50;68.05;;;18.50;;
71715;SDS011;59568;52.128;5.434;2023-05-10T05:24:17;67.82;;;18.08;;
71715;SDS011;59568;52.128;5.434;2023-05-10T05:26:43;64.07;;;17.73;;
71715;SDS011;59568;52.128;5.434;2023-05-10T05:29:09;62.97;;;17.67;;
71715;SDS011;59568;52.128;5.434;2023-05-10T05:31:36;63.58;;;18.58;;
71715;SDS011;59568;52.128;5.434;2023-05-10T05:34:03;70.43;;;19.15;;
71715;SDS011;59568;52.128;5.434;2023-05-10T05:36:30;70.63;;;19.00;;
71715;SDS011;59568;52.128;5.434;2023-05-10T05:38:57;66.23;;;19.80;;
71715;SDS011;59568;52.128;5.434;2023-05-10T05:41:24;72.95;;;19.42;;
71715;SDS011;59568;52.128;5.434;2023-05-10T05:43:50;65.53;;;18.90;;
71715;SDS011;59568;52.128;5.434;2023-05-10T05:46:17;65.50;;;19.73;;
71715;SDS011;59568;52.128;5.434;2023-05-10T05:48:44;64.82;;;20.17;;
71715;SDS011;59568;52.128;5.434;2023-05-10T05:51:10;59.83;;;18.33;;
71715;SDS011;59568;52.128;5.434;2023-05-10T05:53:37;64.10;;;19.55;;
71715;SDS011;59568;52.128;5.434;2023-05-10T05:56:04;64.10;;;19.50;;
71715;SDS011;59568;52.128;5.434;2023-05-10T05:58:30;60.55;;;19.67;;
71715;SDS011;59568;52.128;5.434;2023-05-10T06:00:57;58.60;;;18.85;;
71715;SDS011;59568;52.128;5.434;2023-05-10T06:03:23;54.73;;;18.03;;
71715;SDS011;59568;52.128;5.434;2023-05-10T06:05:50;52.60;;;17.13;;
71715;SDS011;59568;52.128;5.434;2023-05-10T06:08:17;59.85;;;19.75;;
71715;SDS011;59568;52.128;5.434;2023-05-10T06:10:43;62.55;;;18.95;;
71715;SDS011;59568;52.128;5.434;2023-05-10T06:13:10;49.92;;;17.10;;
71715;SDS011;59568;52.128;5.434;2023-05-10T06:15:37;45.97;;;16.27;;
71715;SDS011;59568;52.128;5.434;2023-05-10T06:18:04;48.13;;;16.83;;
71715;SDS011;59568;52.128;5.434;2023-05-10T06:20:32;45.35;;;16.70;;
71715;SDS011;59568;52.128;5.434;2023-05-10T06:22:58;47.92;;;16.60;;
71715;SDS011;59568;52.128;5.434;2023-05-10T06:25:25;47.88;;;17.27;;
71715;SDS011;59568;52.128;5.434;2023-05-10T06:27:51;46.03;;;16.60;;
71715;SDS011;59568;52.128;5.434;2023-05-10T06:30:23;46.97;;;18.35;;
71715;SDS011;59568;52.128;5.434;2023-05-10T06:32:54;45.22;;;16.17;;
71715;SDS011;59568;52.128;5.434;2023-05-10T06:35:21;43.65;;;15.93;;
71715;SDS011;59568;52.128;5.434;2023-05-10T06:37:48;42.30;;;15.65;;
71715;SDS011;59568;52.128;5.434;2023-05-10T06:40:15;45.40;;;15.30;;
71715;SDS011;59568;52.128;5.434;2023-05-10T06:42:41;47.40;;;16.92;;
71715;SDS011;59568;52.128;5.434;2023-05-10T06:45:08;37.70;;;14.98;;
71715;SDS011;59568;52.128;5.434;2023-05-10T06:47:35;35.38;;;14.60;;
71715;SDS011;59568;52.128;5.434;2023-05-10T06:50:04;34.20;;;12.63;;
71715;SDS011;59568;52.128;5.434;2023-05-10T06:52:31;32.43;;;13.07;;
71715;SDS011;59568;52.128;5.434;2023-05-10T06:54:58;32.88;;;13.88;;
71715;SDS011;59568;52.128;5.434;2023-05-10T06:57:24;32.35;;;12.30;;
71715;SDS011;59568;52.128;5.434;2023-05-10T06:59:57;33.33;;;11.73;;
71715;SDS011;59568;52.128;5.434;2023-05-10T07:02:24;29.73;;;10.82;;
71715;SDS011;59568;52.128;5.434;2023-05-10T07:04:51;27.53;;;10.67;;
71715;SDS011;59568;52.128;5.434;2023-05-10T07:07:18;23.48;;;9.65;;
71715;SDS011;59568;52.128;5.434;2023-05-10T07:09:45;23.92;;;9.20;;
71715;SDS011;59568;52.128;5.434;2023-05-10T07:12:12;25.42;;;9.73;;
71715;SDS011;59568;52.128;5.434;2023-05-10T07:14:41;20.75;;;9.60;;
71715;SDS011;59568;52.128;5.434;2023-05-10T07:17:08;21.90;;;9.00;;
71715;SDS011;59568;52.128;5.434;2023-05-10T07:19:34;17.63;;;8.23;;
71715;SDS011;59568;52.128;5.434;2023-05-10T07:22:02;21.83;;;8.35;;
71715;SDS011;59568;52.128;5.434;2023-05-10T07:24:28;19.02;;;7.18;;
71715;SDS011;59568;52.128;5.434;2023-05-10T07:26:58;17.35;;;7.45;;
71715;SDS011;59568;52.128;5.434;2023-05-10T07:29:24;15.43;;;7.13;;
71715;SDS011;59568;52.128;5.434;2023-05-10T07:31:51;16.25;;;6.45;;
71715;SDS011;59568;52.128;5.434;2023-05-10T07:34:23;17.52;;;7.35;;
71715;SDS011;59568;52.128;5.434;2023-05-10T07:36:51;15.25;;;6.93;;
71715;SDS011;59568;52.128;5.434;2023-05-10T07:39:17;17.20;;;7.15;;
71715;SDS011;59568;52.128;5.434;2023-05-10T07:41:52;14.47;;;7.27;;
71715;SDS011;59568;52.128;5.434;2023-05-10T07:44:19;16.38;;;7.85;;
71715;SDS011;59568;52.128;5.434;2023-05-10T07:46:46;14.25;;;7.00;;
71715;SDS011;59568;52.128;5.434;2023-05-10T07:49:14;17.33;;;7.80;;
71715;SDS011;59568;52.128;5.434;2023-05-10T07:51:40;16.23;;;8.05;;
71715;SDS011;59568;52.128;5.434;2023-05-10T07:54:08;19.90;;;7.77;;
71715;SDS011;59568;52.128;5.434;2023-05-10T07:56:37;17.83;;;7.65;;
71715;SDS011;59568;52.128;5.434;2023-05-10T07:59:06;15.45;;;8.23;;
71715;SDS011;59568;52.128;5.434;2023-05-10T08:01:37;14.77;;;7.05;;
71715;SDS011;59568;52.128;5.434;2023-05-10T08:04:05;13.82;;;6.75;;
71715;SDS011;59568;52.128;5.434;2023-05-10T08:06:32;16.93;;;6.83;;
71715;SDS011;59568;52.128;5.434;2023-05-10T08:09:03;13.75;;;6.60;;
71715;SDS011;59568;52.128;5.434;2023-05-10T08:11:31;13.85;;;6.82;;
71715;SDS011;59568;52.128;5.434;2023-05-10T08:14:00;15.07;;;6.38;;
71715;SDS011;59568;52.128;5.434;2023-05-10T08:16:27;14.45;;;6.95;;
71715;SDS011;59568;52.128;5.434;2023-05-10T08:18:53;12.37;;;5.40;;
71715;SDS011;59568;52.128;5.434;2023-05-10T08:21:25;14.60;;;6.57;;
71715;SDS011;59568;52.128;5.434;2023-05-10T08:23:52;13.57;;;6.32;;
71715;SDS011;59568;52.128;5.434;2023-05-10T08:26:18;14.57;;;6.80;;
71715;SDS011;59568;52.128;5.434;2023-05-10T08:28:47;12.70;;;6.10;;
71715;SDS011;59568;52.128;5.434;2023-05-10T08:31:15;12.33;;;6.67;;
71715;SDS011;59568;52.128;5.434;2023-05-10T08:33:42;14.85;;;7.57;;
71715;SDS011;59568;52.128;5.434;2023-05-10T08:36:09;15.55;;;7.30;;
71715;SDS011;59568;52.128;5.434;2023-05-10T08:38:37;17.00;;;8.05;;
71715;SDS011;59568;52.128;5.434;2023-05-10T08:41:08;18.92;;;7.43;;
71715;SDS011;59568;52.128;5.434;2023-05-10T08:43:37;15.37;;;8.07;;
71715;SDS011;59568;52.128;5.434;2023-05-10T08:46:05;16.27;;;7.68;;
71715;SDS011;59568;52.128;5.434;2023-05-10T08:48:34;15.27;;;8.05;;
71715;SDS011;59568;52.128;5.434;2023-05-10T08:51:00;15.45;;;7.15;;
71715;SDS011;59568;52.128;5.434;2023-05-10T08:53:29;16.48;;;7.80;;
71715;SDS011;59568;52.128;5.434;2023-05-10T08:55:59;15.03;;;7.30;;
71715;SDS011;59568;52.128;5.434;2023-05-10T08:58:27;16.70;;;8.20;;
71715;SDS011;59568;52.128;5.434;2023-05-10T09:00:54;16.17;;;8.00;;
71715;SDS011;59568;52.128;5.434;2023-05-10T09:03:21;16.33;;;7.70;;
71715;SDS011;59568;52.128;5.434;2023-05-10T09:05:48;17.60;;;7.65;;
71715;SDS011;59568;52.128;5.434;2023-05-10T09:08:16;14.73;;;7.53;;
71715;SDS011;59568;52.128;5.434;2023-05-10T09:10:44;12.20;;;6.95;;
71715;SDS011;59568;52.128;5.434;2023-05-10T09:13:13;13.88;;;7.10;;
71715;SDS011;59568;52.128;5.434;2023-05-10T09:15:43;11.45;;;6.75;;
71715;SDS011;59568;52.128;5.434;2023-05-10T09:18:13;12.25;;;6.60;;
71715;SDS011;59568;52.128;5.434;2023-05-10T09:20:40;13.10;;;6.73;;
71715;SDS011;59568;52.128;5.434;2023-05-10T09:23:07;11.25;;;6.80;;
71715;SDS011;59568;52.128;5.434;2023-05-10T09:25:33;11.93;;;6.03;;
71715;SDS011;59568;52.128;5.434;2023-05-10T09:28:01;10.32;;;5.22;;
71715;SDS011;59568;52.128;5.434;2023-05-10T09:30:28;10.75;;;4.65;;
71715;SDS011;59568;52.128;5.434;2023-05-10T09:32:57;9.40;;;4.50;;
71715;SDS011;59568;52.128;5.434;2023-05-10T09:35:26;9.52;;;4.68;;
71715;SDS011;59568;52.128;5.434;2023-05-10T09:37:59;7.97;;;4.47;;
71715;SDS011;59568;52.128;5.434;2023-05-10T09:40:29;7.38;;;3.90;;
71715;SDS011;59568;52.128;5.434;2023-05-10T09:42:57;5.88;;;3.20;;
71715;SDS011;59568;52.128;5.434;2023-05-10T09:45:26;5.20;;;2.47;;
71715;SDS011;59568;52.128;5.434;2023-05-10T09:47:55;6.18;;;2.90;;
71715;SDS011;59568;52.128;5.434;2023-05-10T09:50:23;7.53;;;2.72;;
71715;SDS011;59568;52.128;5.434;2023-05-10T09:52:51;4.90;;;2.83;;
71715;SDS011;59568;52.128;5.434;2023-05-10T09:55:20;6.07;;;3.28;;
71715;SDS011;59568;52.128;5.434;2023-05-10T09:57:48;4.97;;;2.50;;
71715;SDS011;59568;52.128;5.434;2023-05-10T10:00:19;6.32;;;2.83;;
71715;SDS011;59568;52.128;5.434;2023-05-10T10:02:47;5.55;;;2.70;;
71715;SDS011;59568;52.128;5.434;2023-05-10T10:05:14;6.05;;;2.92;;
71715;SDS011;59568;52.128;5.434;2023-05-10T10:07:41;6.13;;;3.30;;
71715;SDS011;59568;52.128;5.434;2023-05-10T10:10:08;7.00;;;2.97;;
71715;SDS011;59568;52.128;5.434;2023-05-10T10:12:38;5.97;;;3.15;;
71715;SDS011;59568;52.128;5.434;2023-05-10T10:15:07;5.45;;;3.20;;
71715;SDS011;59568;52.128;5.434;2023-05-10T10:17:35;6.82;;;3.17;;
71715;SDS011;59568;52.128;5.434;2023-05-10T10:20:04;6.30;;;2.72;;
71715;SDS011;59568;52.128;5.434;2023-05-10T10:22:31;6.77;;;3.03;;
71715;SDS011;59568;52.128;5.434;2023-05-10T10:24:58;6.47;;;3.00;;
71715;SDS011;59568;52.128;5.434;2023-05-10T10:27:33;7.18;;;3.92;;
71715;SDS011;59568;52.128;5.434;2023-05-10T10:35:18;5.70;;;3.30;;
71715;SDS011;59568;52.128;5.434;2023-05-10T10:37:46;7.85;;;3.80;;
71715;SDS011;59568;52.128;5.434;2023-05-10T10:40:23;7.30;;;4.13;;
71715;SDS011;59568;52.128;5.434;2023-05-10T10:42:56;8.13;;;4.03;;
71715;SDS011;59568;52.128;5.434;2023-05-10T10:45:23;7.28;;;3.97;;
71715;SDS011;59568;52.128;5.434;2023-05-10T10:50:46;7.03;;;3.90;;
71715;SDS011;59568;52.128;5.434;2023-05-10T10:53:13;6.40;;;3.33;;
71715;SDS011;59568;52.128;5.434;2023-05-10T10:55:46;8.10;;;3.97;;
71715;SDS011;59568;52.128;5.434;2023-05-10T10:58:32;5.95;;;3.42;;
71715;SDS011;59568;52.128;5.434;2023-05-10T11:01:13;5.87;;;3.13;;
71715;SDS011;59568;52.128;5.434;2023-05-10T11:04:31;6.97;;;3.42;;
71715;SDS011;59568;52.128;5.434;2023-05-10T11:06:31;5.90;;;3.25;;
71715;SDS011;59568;52.128;5.434;2023-05-10T11:08:58;9.13;;;3.88;;
71715;SDS011;59568;52.128;5.434;2023-05-10T11:11:31;6.47;;;3.08;;
71715;SDS011;59568;52.128;5.434;2023-05-10T11:14:02;5.20;;;3.13;;
71715;SDS011;59568;52.128;5.434;2023-05-10T11:16:40;5.55;;;3.40;;
71715;SDS011;59568;52.128;5.434;2023-05-10T11:19:11;6.03;;;3.60;;
71715;SDS011;59568;52.128;5.434;2023-05-10T11:21:49;6.20;;;3.50;;
71715;SDS011;59568;52.128;5.434;2023-05-10T11:24:22;6.57;;;3.42;;
71715;SDS011;59568;52.128;5.434;2023-05-10T11:26:49;5.70;;;2.97;;
71715;SDS011;59568;52.128;5.434;2023-05-10T11:29:17;5.70;;;3.08;;
71715;SDS011;59568;52.128;5.434;2023-05-10T11:31:44;6.13;;;3.28;;
71715;SDS011;59568;52.128;5.434;2023-05-10T11:34:33;5.97;;;2.90;;
71715;SDS011;59568;52.128;5.434;2023-05-10T11:37:02;8.93;;;3.35;;
71715;SDS011;59568;52.128;5.434;2023-05-10T11:39:32;6.13;;;3.57;;
71715;SDS011;59568;52.128;5.434;2023-05-10T11:42:01;5.18;;;3.22;;
71715;SDS011;59568;52.128;5.434;2023-05-10T11:44:29;6.57;;;2.70;;
71715;SDS011;59568;52.128;5.434;2023-05-10T11:47:00;5.80;;;2.60;;
71715;SDS011;59568;52.128;5.434;2023-05-10T11:49:31;5.13;;;3.05;;
71715;SDS011;59568;52.128;5.434;2023-05-10T11:52:08;6.47;;;2.77;;
71715;SDS011;59568;52.128;5.434;2023-05-10T11:54:37;6.22;;;2.75;;
71715;SDS011;59568;52.128;5.434;2023-05-10T11:57:04;4.93;;;2.53;;
71715;SDS011;59568;52.128;5.434;2023-05-10T11:59:31;6.70;;;2.80;;
71715;SDS011;59568;52.128;5.434;2023-05-10T12:01:57;6.53;;;2.70;;
71715;SDS011;59568;52.128;5.434;2023-05-10T12:04:24;4.10;;;2.30;;
71715;SDS011;59568;52.128;5.434;2023-05-10T12:06:51;4.25;;;2.55;;
71715;SDS011;59568;52.128;5.434;2023-05-10T12:09:18;4.10;;;2.20;;
71715;SDS011;59568;52.128;5.434;2023-05-10T12:12:05;5.35;;;2.13;;
71715;SDS011;59568;52.128;5.434;2023-05-10T12:14:33;3.90;;;2.03;;
71715;SDS011;59568;52.128;5.434;2023-05-10T12:17:01;5.47;;;1.97;;
71715;SDS011;59568;52.128;5.434;2023-05-10T12:19:36;4.25;;;2.03;;
71715;SDS011;59568;52.128;5.434;2023-05-10T12:22:04;3.15;;;1.60;;
71715;SDS011;59568;52.128;5.434;2023-05-10T12:24:33;2.88;;;1.15;;
71715;SDS011;59568;52.128;5.434;2023-05-10T12:27:04;4.68;;;1.48;;
71715;SDS011;59568;52.128;5.434;2023-05-10T12:29:51;3.80;;;1.50;;
71715;SDS011;59568;52.128;5.434;2023-05-10T12:32:17;4.45;;;1.58;;
71715;SDS011;59568;52.128;5.434;2023-05-10T12:34:44;6.00;;;2.15;;
71715;SDS011;59568;52.128;5.434;2023-05-10T12:37:12;3.47;;;1.63;;
71715;SDS011;59568;52.128;5.434;2023-05-10T12:39:43;4.40;;;1.90;;
71715;SDS011;59568;52.128;5.434;2023-05-10T12:42:10;5.83;;;1.43;;
71715;SDS011;59568;52.128;5.434;2023-05-10T12:44:37;5.70;;;1.73;;
71715;SDS011;59568;52.128;5.434;2023-05-10T12:47:04;3.78;;;1.25;;
71715;SDS011;59568;52.128;5.434;2023-05-10T12:49:31;3.72;;;1.60;;
71715;SDS011;59568;52.128;5.434;2023-05-10T12:51:58;4.38;;;1.35;;
71715;SDS011;59568;52.128;5.434;2023-05-10T12:54:25;6.30;;;1.47;;
71715;SDS011;59568;52.128;5.434;2023-05-10T12:56:52;3.88;;;1.45;;
71715;SDS011;59568;52.128;5.434;2023-05-10T12:59:18;5.60;;;2.00;;
71715;SDS011;59568;52.128;5.434;2023-05-10T13:01:46;3.65;;;1.55;;
71715;SDS011;59568;52.128;5.434;2023-05-10T13:04:12;3.42;;;1.70;;
71715;SDS011;59568;52.128;5.434;2023-05-10T13:06:39;3.10;;;1.23;;
71715;SDS011;59568;52.128;5.434;2023-05-10T13:09:05;3.78;;;1.35;;
71715;SDS011;59568;52.128;5.434;2023-05-10T13:11:32;1.92;;;1.00;;
71715;SDS011;59568;52.128;5.434;2023-05-10T13:13:58;3.65;;;1.33;;
71715;SDS011;59568;52.128;5.434;2023-05-10T13:16:25;4.70;;;1.13;;
71715;SDS011;59568;52.128;5.434;2023-05-10T13:18:51;6.43;;;1.10;;
71715;SDS011;59568;52.128;5.434;2023-05-10T13:21:18;5.05;;;2.85;;
71715;SDS011;59568;52.128;5.434;2023-05-10T13:23:46;5.65;;;2.00;;
71715;SDS011;59568;52.128;5.434;2023-05-10T13:26:13;4.97;;;2.65;;
71715;SDS011;59568;52.128;5.434;2023-05-10T13:28:40;5.13;;;2.47;;
71715;SDS011;59568;52.128;5.434;2023-05-10T13:31:07;6.07;;;3.00;;
71715;SDS011;59568;52.128;5.434;2023-05-10T13:33:34;5.70;;;2.78;;
71715;SDS011;59568;52.128;5.434;2023-05-10T13:36:00;6.75;;;3.00;;
71715;SDS011;59568;52.128;5.434;2023-05-10T13:38:27;7.72;;;2.90;;
71715;SDS011;59568;52.128;5.434;2023-05-10T13:40:55;8.07;;;2.97;;
71715;SDS011;59568;52.128;5.434;2023-05-10T13:43:23;9.80;;;3.10;;
71715;SDS011;59568;52.128;5.434;2023-05-10T13:45:50;8.27;;;3.10;;
71715;SDS011;59568;52.128;5.434;2023-05-10T13:48:16;7.32;;;2.85;;
71715;SDS011;59568;52.128;5.434;2023-05-10T13:50:43;7.68;;;2.63;;
71715;SDS011;59568;52.128;5.434;2023-05-10T13:53:10;5.30;;;2.70;;
71715;SDS011;59568;52.128;5.434;2023-05-10T13:55:38;6.83;;;2.60;;
71715;SDS011;59568;52.128;5.434;2023-05-10T13:58:04;8.82;;;3.72;;
71715;SDS011;59568;52.128;5.434;2023-05-10T14:00:31;8.77;;;3.13;;
71715;SDS011;59568;52.128;5.434;2023-05-10T14:02:58;6.50;;;2.92;;
71715;SDS011;59568;52.128;5.434;2023-05-10T14:05:24;6.25;;;3.30;;
71715;SDS011;59568;52.128;5.434;2023-05-10T14:07:52;10.03;;;3.30;;
71715;SDS011;59568;52.128;5.434;2023-05-10T14:10:18;10.05;;;3.22;;
71715;SDS011;59568;52.128;5.434;2023-05-10T14:12:46;7.88;;;3.08;;
71715;SDS011;59568;52.128;5.434;2023-05-10T14:15:12;7.28;;;3.28;;
71715;SDS011;59568;52.128;5.434;2023-05-10T14:17:39;5.90;;;2.85;;
71715;SDS011;59568;52.128;5.434;2023-05-10T14:20:06;8.67;;;3.50;;
71715;SDS011;59568;52.128;5.434;2023-05-10T14:22:34;9.35;;;3.40;;
71715;SDS011;59568;52.128;5.434;2023-05-10T14:25:02;8.10;;;3.03;;
71715;SDS011;59568;52.128;5.434;2023-05-10T14:27:28;7.68;;;2.97;;
71715;SDS011;59568;52.128;5.434;2023-05-10T14:29:55;7.70;;;3.65;;
71715;SDS011;59568;52.128;5.434;2023-05-10T14:32:22;8.63;;;4.40;;
71715;SDS011;59568;52.128;5.434;2023-05-10T14:34:49;8.55;;;4.35;;
71715;SDS011;59568;52.128;5.434;2023-05-10T14:37:15;9.07;;;4.00;;
71715;SDS011;59568;52.128;5.434;2023-05-10T14:39:42;9.10;;;4.75;;
71715;SDS011;59568;52.128;5.434;2023-05-10T14:42:08;10.25;;;4.63;;
71715;SDS011;59568;52.128;5.434;2023-05-10T14:44:35;9.33;;;4.10;;
71715;SDS011;59568;52.128;5.434;2023-05-10T14:47:02;11.52;;;3.85;;
71715;SDS011;59568;52.128;5.434;2023-05-10T14:49:30;6.20;;;3.17;;
71715;SDS011;59568;52.128;5.434;2023-05-10T14:51:58;7.55;;;3.95;;
71715;SDS011;59568;52.128;5.434;2023-05-10T14:54:25;11.52;;;4.28;;
71715;SDS011;59568;52.128;5.434;2023-05-10T14:56:52;9.57;;;4.27;;
71715;SDS011;59568;52.128;5.434;2023-05-10T14:59:18;8.93;;;3.75;;
71715;SDS011;59568;52.128;5.434;2023-05-10T15:01:45;8.52;;;4.55;;